Time;durP1;ratioP1;P1;durP2;ratioP2;P2;SDS_P1;SDS_P2;PMS_P1;PMS_P2;Temp;Humidity;BMP_temperature;BMP_pressure;BME280_temperature;BME280_humidity;BME280_pressure;Samples;Min_cycle;Max_cycle;Signal;HPM_P1;HPM_P2
2022/08/17 00:01:37;;;;;;;;;;;;;;;20.68;100.00;101095.13;5091976;28;20377;-38
2022/08/17 00:04:19;;;;;;;;;;;;;;;20.66;100.00;101092.66;5091875;28;20373;-37
2022/08/17 00:06:47;;;;;;;;;;;;;;;20.65;100.00;101096.69;5092136;28;19926;-31
2022/08/17 00:09:16;;;;;;;;;;;;;;;20.62;100.00;101094.56;5092463;28;19961;-31
2022/08/17 00:11:46;;;;;;;;;;;;;;;20.59;100.00;101103.78;5091320;28;19920;-35
2022/08/17 00:14:34;;;;;;;;;;;;;;;20.56;100.00;101107.38;5092165;28;19920;-37
2022/08/17 00:17:05;;;;;;;;;;;;;;;20.55;100.00;101117.06;5091988;28;19969;-40
2022/08/17 00:19:33;;;;;;;;;;;;;;;20.53;100.00;101117.44;5091740;28;19920;-34
2022/08/17 00:22:01;;;;;;;;;;;;;;;20.54;100.00;101129.59;5091947;28;19920;-32
2022/08/17 00:24:49;;;;;;;;;;;;;;;20.57;100.00;101123.22;5091506;28;19923;-37
2022/08/17 00:27:17;;;;;;;;;;;;;;;20.56;100.00;101113.88;5091687;28;19928;-39
2022/08/17 00:29:45;;;;;;;;;;;;;;;20.55;100.00;101117.91;5091957;28;19974;-43
2022/08/17 00:32:14;;;;;;;;;;;;;;;20.53;100.00;101110.94;5091032;28;19930;-33
2022/08/17 00:35:03;;;;;;;;;;;;;;;20.49;100.00;101101.50;5094170;28;19986;-40
2022/08/17 00:37:31;;;;;;;;;;;;;;;20.44;100.00;101101.75;5095345;28;20284;-32
2022/08/17 00:39:59;;;;;;;;;;;;;;;20.39;100.00;101096.31;5095281;28;19928;-35
2022/08/17 00:42:26;;;;;;;;;;;;;;;20.36;100.00;101097.03;5095982;28;19920;-43
2022/08/17 00:44:57;;;;;;;;;;;;;;;20.33;100.00;101100.59;5085024;28;20330;-38
2022/08/17 00:47:26;;;;;;;;;;;;;;;20.30;100.00;101102.13;5094757;28;19920;-32
2022/08/17 00:49:54;;;;;;;;;;;;;;;20.26;100.00;101102.00;5095686;28;19920;-34
2022/08/17 00:52:24;;;;;;;;;;;;;;;20.24;100.00;101106.38;5095682;28;20358;-38
2022/08/17 00:54:54;;;;;;;;;;;;;;;20.21;100.00;101105.09;5094648;28;19919;-35
2022/08/17 00:57:24;;;;;;;;;;;;;;;20.19;100.00;101103.78;5095266;28;19920;-33
2022/08/17 00:59:54;;;;;;;;;;;;;;;20.18;100.00;101110.66;5093917;28;19966;-35
2022/08/17 01:02:33;;;;;;;;;;;;;;;20.14;100.00;101119.06;5095269;28;19920;-41
2022/08/17 01:05:12;;;;;;;;;;;;;;;20.13;100.00;101108.06;5092041;28;20262;-43
2022/08/17 01:07:40;;;;;;;;;;;;;;;20.11;100.00;101107.59;5094514;28;19931;-32
2022/08/17 01:10:10;;;;;;;;;;;;;;;20.08;100.00;101103.47;5094824;28;19920;-35
2022/08/17 01:12:57;;;;;;;;;;;;;;;20.08;100.00;101106.31;5095037;28;19920;-35
2022/08/17 01:15:25;;;;;;;;;;;;;;;20.08;100.00;101114.81;5094571;28;19920;-32
2022/08/17 01:17:54;;;;;;;;;;;;;;;20.05;100.00;101101.34;5095280;28;19920;-32
2022/08/17 01:20:22;;;;;;;;;;;;;;;20.06;100.00;101108.66;5094613;28;19919;-32
2022/08/17 01:22:51;;;;;;;;;;;;;;;20.05;100.00;101104.19;5094350;28;19927;-32
2022/08/17 01:25:21;;;;;;;;;;;;;;;20.06;100.00;101105.00;5094653;28;19978;-37
2022/08/17 01:27:49;;;;;;;;;;;;;;;20.04;100.00;101094.03;5094012;28;20316;-32
2022/08/17 01:30:17;;;;;;;;;;;;;;;20.06;100.00;101079.50;5094626;28;19927;-36
2022/08/17 01:33:04;;;;;;;;;;;;;;;20.07;100.00;101076.31;5074805;28;19927;-32
2022/08/17 01:35:32;;;;;;;;;;;;;;;20.08;100.00;101094.16;5090537;28;19931;-32
2022/08/17 01:38:01;;;;;;;;;;;;;;;20.09;100.00;101090.13;5074408;28;19920;-33
2022/08/17 01:40:32;;;;;;;;;;;;;;;20.09;100.00;101092.97;5089600;28;19920;-32
2022/08/17 01:43:01;;;;;;;;;;;;;;;20.08;100.00;101094.16;5094346;28;19920;-32
2022/08/17 01:45:30;;;;;;;;;;;;;;;20.07;100.00;101092.50;5094219;28;19920;-36
2022/08/17 01:47:58;;;;;;;;;;;;;;;20.05;100.00;101084.34;5094640;28;19924;-33
2022/08/17 01:50:27;;;;;;;;;;;;;;;20.03;100.00;101092.38;5093009;28;19927;-32
2022/08/17 01:52:57;;;;;;;;;;;;;;;20.01;100.00;101091.91;5094839;28;19920;-33
2022/08/17 01:55:38;;;;;;;;;;;;;;;19.98;100.00;101089.81;5094053;28;20386;-34
2022/08/17 01:58:08;;;;;;;;;;;;;;;19.95;100.00;101090.53;5093591;28;19927;-39
2022/08/17 02:00:36;;;;;;;;;;;;;;;19.91;100.00;101090.41;5094142;28;19927;-41
2022/08/17 02:03:24;;;;;;;;;;;;;;;19.87;100.00;101089.47;5093648;28;19923;-32
2022/08/17 02:05:53;;;;;;;;;;;;;;;19.86;100.00;101093.47;5094013;28;19923;-32
2022/08/17 02:08:21;;;;;;;;;;;;;;;19.85;100.00;101085.34;5094139;28;19920;-38
2022/08/17 02:11:13;;;;;;;;;;;;;;;19.83;100.00;101080.03;5092994;28;19923;-32
2022/08/17 02:13:41;;;;;;;;;;;;;;;19.82;100.00;101077.56;5094170;28;19928;-38
2022/08/17 02:16:08;;;;;;;;;;;;;;;19.80;100.00;101077.91;5093685;28;19927;-39
2022/08/17 02:18:36;;;;;;;;;;;;;;;19.80;100.00;101077.09;5093148;28;19931;-33
2022/08/17 02:21:04;;;;;;;;;;;;;;;19.80;100.00;101085.56;5093504;28;19928;-32
2022/08/17 02:23:33;;;;;;;;;;;;;;;19.79;100.00;101081.91;5093812;28;19928;-34
2022/08/17 02:26:01;;;;;;;;;;;;;;;19.81;100.00;101087.22;5092565;28;19927;-35
2022/08/17 02:28:30;;;;;;;;;;;;;;;19.84;100.00;101086.53;5093520;28;20381;-32
2022/08/17 02:31:03;;;;;;;;;;;;;;;19.88;100.00;101098.78;5092112;28;19940;-32
2022/08/17 02:33:31;;;;;;;;;;;;;;;19.91;100.00;101089.59;5082466;28;19990;-40
2022/08/17 02:36:10;;;;;;;;;;;;;;;19.93;100.00;101087.22;5093215;28;20385;-36
2022/08/17 02:38:38;;;;;;;;;;;;;;;19.92;100.00;101092.06;5092635;28;19920;-32
2022/08/17 02:41:06;;;;;;;;;;;;;;;19.91;100.00;101095.25;5093471;28;20292;-31
2022/08/17 02:43:35;;;;;;;;;;;;;;;19.89;100.00;101089.13;5093394;28;19927;-32
2022/08/17 02:46:03;;;;;;;;;;;;;;;19.87;100.00;101097.97;5092612;28;19931;-40
2022/08/17 02:48:30;;;;;;;;;;;;;;;19.87;100.00;101100.78;5092988;28;19927;-42
2022/08/17 02:50:58;;;;;;;;;;;;;;;19.87;100.00;101083.81;5093367;28;19924;-32
2022/08/17 02:53:26;;;;;;;;;;;;;;;19.88;100.00;101098.78;5092325;28;19924;-40
2022/08/17 02:56:00;;;;;;;;;;;;;;;19.87;100.00;101102.81;5093414;28;19959;-31
2022/08/17 02:58:27;;;;;;;;;;;;;;;19.88;100.00;101095.97;5092426;28;19920;-35
2022/08/17 03:01:05;;;;;;;;;;;;;;;19.88;100.00;101102.44;5092935;28;19937;-32
2022/08/17 03:03:32;;;;;;;;;;;;;;;19.90;100.00;101093.59;5092701;28;19931;-32
2022/08/17 03:06:01;;;;;;;;;;;;;;;19.91;100.00;101089.59;5093330;28;19923;-31
2022/08/17 03:08:29;;;;;;;;;;;;;;;19.94;100.00;101094.53;5091870;28;19920;-36
2022/08/17 03:10:56;;;;;;;;;;;;;;;19.95;100.00;101094.19;5093004;28;19920;-39
2022/08/17 03:13:24;;;;;;;;;;;;;;;19.97;100.00;101093.00;5091872;28;19920;-32
2022/08/17 03:15:51;;;;;;;;;;;;;;;19.99;100.00;101090.63;5092743;28;19919;-32
2022/08/17 03:18:22;;;;;;;;;;;;;;;20.02;100.00;101095.56;5092351;28;20411;-35
2022/08/17 03:20:52;;;;;;;;;;;;;;;20.06;100.00;101102.19;5091976;28;19923;-34
2022/08/17 03:23:20;;;;;;;;;;;;;;;20.10;100.00;101108.78;5092540;28;19923;-32
2022/08/17 03:25:50;;;;;;;;;;;;;;;20.10;100.00;101105.94;5092735;28;19920;-36
2022/08/17 03:28:20;;;;;;;;;;;;;;;20.10;100.00;101115.28;5091573;28;19947;-33
2022/08/17 03:30:47;;;;;;;;;;;;;;;20.10;100.00;101115.28;5092886;28;20399;-33
2022/08/17 03:33:15;;;;;;;;;;;;;;;20.12;100.00;101132.75;5092452;28;20292;-40
2022/08/17 03:35:44;;;;;;;;;;;;;;;20.13;100.00;101154.25;5091044;28;19924;-32
2022/08/17 03:38:13;;;;;;;;;;;;;;;20.16;100.00;101187.53;5090393;28;20033;-35
2022/08/17 03:40:43;;;;;;;;;;;;;;;20.19;100.00;101215.13;5090565;28;20400;-41
2022/08/17 03:43:26;;;;;;;;;;;;;;;20.18;100.00;101238.97;5089834;28;19923;-43
2022/08/17 03:57:15;;;;;;;;;;;;;;;20.17;100.00;101226.03;5091537;28;19920;-34
2022/08/17 03:59:42;;;;;;;;;;;;;;;20.18;100.00;101233.31;5091900;28;19930;-31
2022/08/17 04:02:13;;;;;;;;;;;;;;;20.20;100.00;101230.13;5092626;28;20289;-32
2022/08/17 04:04:40;;;;;;;;;;;;;;;20.21;100.00;101223.28;5091271;28;19927;-29
2022/08/17 04:07:09;;;;;;;;;;;;;;;20.21;100.00;101232.59;5092820;28;19927;-31
2022/08/17 04:09:37;;;;;;;;;;;;;;;20.23;100.00;101227.41;5092791;28;20372;-31
2022/08/17 04:12:05;;;;;;;;;;;;;;;20.25;100.00;101215.72;5087563;28;19943;-31
2022/08/17 04:14:35;;;;;;;;;;;;;;;20.26;100.00;101215.38;5096182;28;19920;-32
2022/08/17 04:17:20;;;;;;;;;;;;;;;20.29;100.00;101239.34;5095031;28;19924;-31
2022/08/17 04:19:48;;;;;;;;;;;;;;;20.32;100.00;101238.63;5095678;28;19926;-32
2022/08/17 04:22:17;;;;;;;;;;;;;;;20.32;100.00;101240.66;5096222;28;19923;-33
2022/08/17 04:25:00;;;;;;;;;;;;;;;20.30;100.00;101244.66;5095279;28;19920;-37
2022/08/17 04:27:28;;;;;;;;;;;;;;;20.31;100.00;101239.81;5094994;28;19924;-31
2022/08/17 04:29:55;;;;;;;;;;;;;;;20.32;100.00;101230.13;5095160;28;19919;-32
2022/08/17 04:32:23;;;;;;;;;;;;;;;20.33;100.00;101222.47;5094661;28;19924;-34
2022/08/17 04:35:10;;;;;;;;;;;;;;;20.32;100.00;101229.31;5095262;28;19927;-33
2022/08/17 04:37:39;;;;;;;;;;;;;;;20.31;100.00;101228.47;5083287;28;20254;-35
2022/08/17 04:43:00;;;;;;;;;;;;;;;20.28;100.00;101232.84;5084991;28;19974;-30
2022/08/17 04:45:28;;;;;;;;;;;;;;;20.26;100.00;101232.38;5093947;28;19920;-32
2022/08/17 04:47:59;;;;;;;;;;;;;;;20.23;100.00;101235.91;5083627;28;19920;-31
2022/08/17 04:50:27;;;;;;;;;;;;;;;20.22;100.00;101222.94;5094884;28;19920;-31
2022/08/17 04:52:57;;;;;;;;;;;;;;;20.24;100.00;101216.91;5093712;28;19942;-29
2022/08/17 04:55:25;;;;;;;;;;;;;;;20.25;100.00;101207.22;5094640;28;20276;-31
2022/08/17 04:57:52;;;;;;;;;;;;;;;20.25;100.00;101208.03;5090406;28;20340;-37
2022/08/17 05:00:20;;;;;;;;;;;;;;;20.25;100.00;101202.38;5093553;28;19920;-31
2022/08/17 05:02:48;;;;;;;;;;;;;;;20.23;100.00;101193.41;5093596;28;20289;-32
2022/08/17 05:05:18;;;;;;;;;;;;;;;20.21;100.00;101189.28;5094015;28;19924;-36
2022/08/17 05:07:47;;;;;;;;;;;;;;;20.20;100.00;101188.44;5093816;28;19920;-30
2022/08/17 05:10:16;;;;;;;;;;;;;;;20.17;100.00;101177.84;5094784;28;19926;-40
2022/08/17 05:12:43;;;;;;;;;;;;;;;20.14;100.00;101175.72;5094170;28;19936;-30
2022/08/17 05:15:11;;;;;;;;;;;;;;;20.10;100.00;101177.63;5094931;28;19920;-33
2022/08/17 05:17:39;;;;;;;;;;;;;;;20.06;100.00;101173.00;5093890;28;19920;-38
2022/08/17 05:20:07;;;;;;;;;;;;;;;20.03;100.00;101176.53;5093498;28;20760;-36
2022/08/17 05:22:34;;;;;;;;;;;;;;;19.97;100.00;101169.50;5094627;28;19920;-39
2022/08/17 05:25:02;;;;;;;;;;;;;;;19.93;100.00;101166.53;5092152;28;19924;-32
2022/08/17 05:27:31;;;;;;;;;;;;;;;19.89;100.00;101172.09;5092910;28;19920;-29
2022/08/17 05:30:02;;;;;;;;;;;;;;;19.86;100.00;101161.47;5093907;28;19920;-31
2022/08/17 05:32:30;;;;;;;;;;;;;;;19.86;100.00;101174.78;5093411;28;20319;-35
2022/08/17 05:35:07;;;;;;;;;;;;;;;19.82;100.00;101171.84;5092760;28;19924;-29
2022/08/17 05:37:34;;;;;;;;;;;;;;;19.81;100.00;101167.34;5091121;28;19931;-30
2022/08/17 05:40:02;;;;;;;;;;;;;;;19.78;100.00;101165.25;5093460;28;19927;-37
2022/08/17 05:42:31;;;;;;;;;;;;;;;19.76;100.00;101166.78;5092829;28;19919;-30
2022/08/17 05:44:58;;;;;;;;;;;;;;;19.73;100.00;101162.66;5093227;28;20379;-30
2022/08/17 05:47:26;;;;;;;;;;;;;;;19.72;100.00;101160.16;5093089;28;20018;-35
2022/08/17 05:49:54;;;;;;;;;;;;;;;19.71;100.00;101167.84;5092751;28;19931;-30
2022/08/17 05:52:31;;;;;;;;;;;;;;;19.70;100.00;101168.19;5092897;28;20016;-33
2022/08/17 05:55:06;;;;;;;;;;;;;;;19.69;100.00;101160.88;5092843;28;19935;-31
2022/08/17 05:57:42;;;;;;;;;;;;;;;19.69;100.00;101156.03;5093435;28;20022;-31
2022/08/17 06:00:22;;;;;;;;;;;;;;;19.70;100.00;101159.69;5093116;28;19982;-35
2022/08/17 06:03:10;;;;;;;;;;;;;;;19.72;100.00;101177.16;5092464;28;20335;-30
2022/08/17 06:05:45;;;;;;;;;;;;;;;19.74;100.00;101174.81;5082520;28;19924;-31
2022/08/17 06:08:19;;;;;;;;;;;;;;;19.75;100.00;101162.31;5092797;28;19927;-30
2022/08/17 06:10:51;;;;;;;;;;;;;;;19.76;100.00;101149.78;5081841;28;19942;-33
2022/08/17 06:13:27;;;;;;;;;;;;;;;19.77;100.00;101145.78;5092789;28;19924;-36
2022/08/17 06:15:58;;;;;;;;;;;;;;;19.78;100.00;101131.28;5092969;28;19927;-35
2022/08/17 06:18:28;;;;;;;;;;;;;;;19.79;100.00;101118.72;5091815;28;19924;-30
2022/08/17 06:20:58;;;;;;;;;;;;;;;19.80;100.00;101123.22;5092778;28;19919;-31
2022/08/17 06:23:27;;;;;;;;;;;;;;;19.81;100.00;101135.38;5091364;28;19924;-38
2022/08/17 06:25:58;;;;;;;;;;;;;;;19.83;100.00;101138.69;5092729;28;20258;-36
2022/08/17 06:28:30;;;;;;;;;;;;;;;19.83;100.00;101150.00;5092960;28;20399;-35
2022/08/17 06:31:04;;;;;;;;;;;;;;;19.85;100.00;101164.63;5091723;28;19935;-36
2022/08/17 06:33:34;;;;;;;;;;;;;;;19.87;100.00;101173.63;5091544;28;19930;-37
2022/08/17 06:36:08;;;;;;;;;;;;;;;19.87;100.00;101174.44;5087145;28;19946;-39
2022/08/17 06:38:41;;;;;;;;;;;;;;;19.87;100.00;101182.94;5091289;28;19931;-30
2022/08/17 06:41:15;;;;;;;;;;;;;;;19.86;100.00;101201.09;5092107;28;19920;-39
2022/08/17 06:43:50;;;;;;;;;;;;;;;19.84;100.00;101217.63;5091969;28;20377;-31
2022/08/17 06:46:21;;;;;;;;;;;;;;;19.80;100.00;101213.84;5090751;28;19923;-32
2022/08/17 06:48:54;;;;;;;;;;;;;;;19.77;100.00;101205.25;5091961;28;19931;-33
2022/08/17 06:51:27;;;;;;;;;;;;;;;19.77;100.00;101210.91;5090104;28;20285;-34
2022/08/17 06:53:59;;;;;;;;;;;;;;;19.76;100.00;101206.44;5090825;28;20412;-28
2022/08/17 06:56:32;;;;;;;;;;;;;;;19.75;100.00;101197.09;5091163;28;19927;-29
2022/08/17 06:59:23;;;;;;;;;;;;;;;19.74;100.00;101217.28;5091300;28;20323;-35
2022/08/17 07:01:54;;;;;;;;;;;;;;;19.73;100.00;101219.28;5091041;28;20311;-30
2022/08/17 07:04:24;;;;;;;;;;;;;;;19.73;100.00;101213.63;5091895;28;19924;-32
2022/08/17 07:06:54;;;;;;;;;;;;;;;19.73;100.00;101204.31;5090460;28;20399;-31
2022/08/17 07:09:26;;;;;;;;;;;;;;;19.72;100.00;101200.66;5091704;28;19926;-35
2022/08/17 07:11:56;;;;;;;;;;;;;;;19.71;100.00;101201.81;5091446;28;19927;-30
2022/08/17 07:14:35;;;;;;;;;;;;;;;19.68;100.00;101216.69;5090422;28;19920;-30
2022/08/17 07:17:06;;;;;;;;;;;;;;;19.67;100.00;101222.69;5091347;28;19931;-35
2022/08/17 07:19:35;;;;;;;;;;;;;;;19.65;100.00;101223.03;5090784;28;20289;-32
2022/08/17 07:22:07;;;;;;;;;;;;;;;19.65;100.00;101228.69;5091649;28;20301;-29
2022/08/17 07:24:42;;;;;;;;;;;;;;;19.64;100.00;101237.53;5071608;28;19921;-29
2022/08/17 07:27:11;;;;;;;;;;;;;;;19.61;100.00;101242.72;5087274;28;19920;-34
2022/08/17 07:29:42;;;;;;;;;;;;;;;19.59;100.00;101250.75;5091599;28;19931;-34
2022/08/17 07:32:11;;;;;;;;;;;;;;;19.55;100.00;101263.97;5091343;28;19920;-33
2022/08/17 07:34:59;;;;;;;;;;;;;;;19.49;100.00;101267.34;5091306;28;20281;-30
2022/08/17 07:37:27;;;;;;;;;;;;;;;19.39;100.00;101265.75;5084136;28;19924;-37
2022/08/17 07:39:55;;;;;;;;;;;;;;;19.34;100.00;101277.31;5091153;28;20392;-36
2022/08/17 07:42:42;;;;;;;;;;;;;;;19.30;100.00;101272.69;5089532;28;19923;-32
2022/08/17 07:50:42;;;;;;;;;;;;;;;19.19;100.00;101256.13;5071113;28;19955;-32
2022/08/17 07:53:18;;;;;;;;;;;;;;;19.18;100.00;101256.50;5088941;28;19920;-30
2022/08/17 07:55:45;;;;;;;;;;;;;;;19.16;100.00;101250.38;5090444;28;19927;-30
2022/08/17 07:58:16;;;;;;;;;;;;;;;19.16;100.00;101256.88;5090067;28;19924;-34
2022/08/17 08:00:45;;;;;;;;;;;;;;;19.16;100.00;101270.19;5070521;28;20431;-32
2022/08/17 08:03:15;;;;;;;;;;;;;;;19.15;100.00;101265.69;5084906;28;19998;-38
2022/08/17 08:05:54;;;;;;;;;;;;;;;19.14;100.00;101275.34;5091241;28;19920;-30
2022/08/17 08:08:26;;;;;;;;;;;;;;;19.13;100.00;101274.53;5090860;28;19927;-30
2022/08/17 08:10:59;;;;;;;;;;;;;;;19.12;100.00;101278.53;5090376;28;20360;-30
2022/08/17 08:13:28;;;;;;;;;;;;;;;19.11;100.00;101271.22;5090484;28;20317;-39
2022/08/17 08:16:13;;;;;;;;;;;;;;;19.10;100.00;101278.03;5090474;28;20820;-37
2022/08/17 08:18:42;;;;;;;;;;;;;;;19.11;100.00;101276.03;5091326;28;20015;-31
2022/08/17 08:21:28;;;;;;;;;;;;;;;19.09;100.00;101273.56;5091567;28;19931;-32
2022/08/17 08:23:59;;;;;;;;;;;;;;;19.11;100.00;101273.22;5090938;28;19943;-33
2022/08/17 08:26:33;;;;;;;;;;;;;;;19.08;100.00;101277.56;5092002;28;20385;-30
2022/08/17 08:29:11;;;;;;;;;;;;;;;19.08;100.00;101274.72;5091429;28;20292;-36
2022/08/17 08:31:47;;;;;;;;;;;;;;;19.11;100.00;101276.88;5090610;28;20385;-37
2022/08/17 08:34:22;;;;;;;;;;;;;;;19.13;100.00;101277.34;5090763;28;20245;-33
2022/08/17 08:37:14;;;;;;;;;;;;;;;19.16;100.00;101278.66;5069782;28;20294;-35
2022/08/17 08:39:58;;;;;;;;;;;;;;;19.19;100.00;101275.13;5089942;28;19920;-35
2022/08/17 08:42:31;;;;;;;;;;;;;;;19.21;100.00;101276.44;5091375;28;19924;-30
2022/08/17 08:45:05;;;;;;;;;;;;;;;19.26;100.00;101275.38;5090202;28;20006;-31
2022/08/17 08:47:48;;;;;;;;;;;;;;;19.28;100.00;101259.72;5092219;28;20288;-30
2022/08/17 08:50:22;;;;;;;;;;;;;;;19.33;100.00;101260.69;5091059;28;19924;-28
2022/08/17 08:53:09;;;;;;;;;;;;;;;19.35;100.00;101262.00;5091147;28;19920;-40
2022/08/17 08:55:45;;;;;;;;;;;;;;;19.39;100.00;101262.94;5092683;28;20324;-32
2022/08/17 08:58:14;;;;;;;;;;;;;;;19.43;100.00;101263.88;5094767;28;20292;-36
2022/08/17 09:01:07;;;;;;;;;;;;;;;19.49;100.00;101267.34;5095436;28;19928;-31
2022/08/17 09:03:54;;;;;;;;;;;;;;;19.51;100.00;101268.69;5094900;28;19924;-37
2022/08/17 09:06:44;;;;;;;;;;;;;;;19.55;100.00;101263.97;5083648;28;20334;-30
2022/08/17 09:09:29;;;;;;;;;;;;;;;19.59;100.00;101262.06;5095111;28;20264;-30
2022/08/17 09:12:01;;;;;;;;;;;;;;;19.64;100.00;101265.84;5093554;28;20384;-33
2022/08/17 09:14:34;;;;;;;;;;;;;;;19.67;100.00;101257.50;5094399;28;19920;-37
2022/08/17 09:17:15;;;;;;;;;;;;;;;19.72;100.00;101256.44;5086180;28;19920;-30
2022/08/17 09:19:48;;;;;;;;;;;;;;;19.77;100.00;101248.56;5093638;28;19974;-31
2022/08/17 09:22:21;;;;;;;;;;;;;;;19.84;100.00;101253.63;5094946;28;20274;-30
2022/08/17 09:24:55;;;;;;;;;;;;;;;19.92;100.00;101259.19;5094341;28;19924;-35
2022/08/17 09:27:27;;;;;;;;;;;;;;;20.00;100.00;101248.06;5082487;28;19928;-34
2022/08/17 09:29:57;;;;;;;;;;;;;;;20.06;100.00;101255.16;5094208;28;19920;-32
2022/08/17 09:32:31;;;;;;;;;;;;;;;20.11;100.00;101258.59;5094791;28;20246;-37
2022/08/17 09:35:04;;;;;;;;;;;;;;;20.15;100.00;101268.06;5093777;28;19927;-30
2022/08/17 09:37:35;;;;;;;;;;;;;;;20.20;100.00;101272.63;5094381;28;20447;-32
2022/08/17 09:40:09;;;;;;;;;;;;;;;20.22;100.00;101271.09;5093867;28;19931;-29
2022/08/17 09:42:40;;;;;;;;;;;;;;;20.24;100.00;101263.06;5094524;28;19924;-42
2022/08/17 09:45:15;;;;;;;;;;;;;;;20.27;100.00;101265.22;5093593;28;20368;-42
2022/08/17 09:47:47;;;;;;;;;;;;;;;20.29;100.00;101259.19;5092718;28;20319;-30
2022/08/17 09:50:20;;;;;;;;;;;;;;;20.30;100.00;101264.50;5093972;28;19920;-33
2022/08/17 09:53:08;;;;;;;;;;;;;;;20.32;100.00;101255.66;5094325;28;20313;-40
2022/08/17 09:55:43;;;;;;;;;;;;;;;20.30;100.00;101250.31;5093035;28;20381;-37
2022/08/17 09:58:18;;;;;;;;;;;;;;;20.29;100.00;101262.84;5094042;28;20389;-37
2022/08/17 10:00:51;;;;;;;;;;;;;;;20.29;100.00;101254.34;5094002;28;19949;-36
2022/08/17 10:03:27;;;;;;;;;;;;;;;20.30;100.00;101256.00;5093156;28;19924;-37
2022/08/17 10:06:00;;;;;;;;;;;;;;;20.31;100.00;101262.50;5093645;28;19920;-39
2022/08/17 10:08:36;;;;;;;;;;;;;;;20.32;100.00;101257.66;5092558;28;19920;-31
2022/08/17 10:11:14;;;;;;;;;;;;;;;20.32;100.00;101272.66;5093922;28;19942;-40
2022/08/17 10:13:45;;;;;;;;;;;;;;;20.36;100.00;101275.59;5094175;28;19926;-34
2022/08/17 10:16:23;;;;;;;;;;;;;;;20.38;100.00;101279.78;5092942;28;20331;-33
2022/08/17 10:18:57;;;;;;;;;;;;;;;20.41;100.00;101275.38;5093700;28;19927;-31
2022/08/17 10:27:01;;;;;;;;;;;;;;;20.44;100.00;101267.00;5093479;28;20015;-31
2022/08/17 10:29:32;;;;;;;;;;;;;;;20.45;100.00;101267.81;5092913;28;19924;-33
2022/08/17 10:32:21;;;;;;;;;;;;;;;20.47;100.00;101276.78;5093515;28;19927;-33
2022/08/17 10:34:55;;;;;;;;;;;;;;;20.47;100.00;101283.28;5093668;28;20405;-36
2022/08/17 10:37:36;;;;;;;;;;;;;;;20.48;100.00;101278.44;5092535;28;19920;-34
2022/08/17 10:40:11;;;;;;;;;;;;;;;20.47;100.00;101273.97;5093662;28;19943;-31
2022/08/17 10:42:45;;;;;;;;;;;;;;;20.43;100.00;101273.84;5093240;28;19924;-31
2022/08/17 10:45:17;;;;;;;;;;;;;;;20.41;100.00;101290.38;5092790;28;20638;-31
2022/08/17 10:47:58;;;;;;;;;;;;;;;20.38;100.00;101298.78;5093107;28;19927;-31
2022/08/17 10:50:52;;;;;;;;;;;;;;;20.36;100.00;101304.78;5092707;28;19931;-33
2022/08/17 10:53:39;;;;;;;;;;;;;;;20.36;100.00;101310.44;5089789;28;19924;-31
2022/08/17 10:56:22;;;;;;;;;;;;;;;20.37;100.00;101312.13;5093214;28;19920;-32
2022/08/17 10:58:52;;;;;;;;;;;;;;;20.38;100.00;101313.78;5092290;28;19920;-35
2022/08/17 11:01:21;;;;;;;;;;;;;;;20.36;100.00;101309.63;5092123;28;19920;-32
2022/08/17 11:03:53;;;;;;;;;;;;;;;20.34;100.00;101306.31;5092773;28;20027;-31
2022/08/17 11:06:27;;;;;;;;;;;;;;;20.33;100.00;101293.31;5092233;28;19938;-31
2022/08/17 11:09:19;;;;;;;;;;;;;;;20.30;100.00;101294.84;5092454;28;20292;-33
2022/08/17 11:12:05;;;;;;;;;;;;;;;20.26;100.00;101305.22;5092273;28;20062;-31
2022/08/17 11:14:40;;;;;;;;;;;;;;;20.21;100.00;101303.47;5088341;28;19920;-36
2022/08/17 11:17:20;;;;;;;;;;;;;;;20.16;100.00;101312.22;5092380;28;20292;-31
2022/08/17 11:19:58;;;;;;;;;;;;;;;20.12;100.00;101313.28;5091672;28;19924;-33
2022/08/17 11:22:35;;;;;;;;;;;;;;;20.08;100.00;101321.63;5091461;28;19928;-32
2022/08/17 11:25:12;;;;;;;;;;;;;;;20.02;100.00;101317.38;5092070;28;19930;-31
2022/08/17 11:27:42;;;;;;;;;;;;;;;19.93;100.00;101320.34;5071728;28;19920;-37
2022/08/17 11:30:12;;;;;;;;;;;;;;;19.88;100.00;101333.88;5087857;28;19920;-32
2022/08/17 11:32:42;;;;;;;;;;;;;;;19.82;100.00;101363.59;5091674;28;19919;-32
2022/08/17 11:35:27;;;;;;;;;;;;;;;19.78;100.00;101391.00;5092512;28;19973;-32
2022/08/17 11:38:01;;;;;;;;;;;;;;;19.73;100.00;101375.03;5092597;28;19924;-36
2022/08/17 11:40:47;;;;;;;;;;;;;;;19.71;100.00;101356.72;5091464;28;19924;-40
2022/08/17 11:43:26;;;;;;;;;;;;;;;19.66;100.00;101368.28;5072361;28;19935;-35
2022/08/17 11:46:02;;;;;;;;;;;;;;;19.59;100.00;101383.81;5089365;28;19920;-31
2022/08/17 11:51:34;;;;;;;;;;;;;;;19.53;100.00;101350.41;5092231;28;19920;-33
2022/08/17 11:54:04;;;;;;;;;;;;;;;19.49;100.00;101355.09;5091417;28;19931;-32
2022/08/17 11:56:52;;;;;;;;;;;;;;;19.46;100.00;101327.47;5092257;28;20266;-32
2022/08/17 11:59:39;;;;;;;;;;;;;;;19.41;100.00;101314.34;5092312;28;19924;-33
2022/08/17 12:02:24;;;;;;;;;;;;;;;19.38;100.00;101306.59;5091254;28;19920;-38
2022/08/17 12:05:03;;;;;;;;;;;;;;;19.35;100.00;101304.44;5091952;28;20058;-37
2022/08/17 12:07:40;;;;;;;;;;;;;;;19.34;100.00;101314.09;5092215;28;20396;-31
2022/08/17 12:10:11;;;;;;;;;;;;;;;19.34;100.00;101310.44;5091610;28;19920;-32
2022/08/17 12:12:42;;;;;;;;;;;;;;;19.30;100.00;101312.31;5092163;28;19927;-38
2022/08/17 12:15:16;;;;;;;;;;;;;;;19.25;100.00;101310.53;5091180;28;20289;-31
2022/08/17 12:17:50;;;;;;;;;;;;;;;19.21;100.00;101320.88;5091538;28;19920;-35
2022/08/17 12:20:24;;;;;;;;;;;;;;;19.20;100.00;101302.25;5092218;28;19981;-32
2022/08/17 12:22:59;;;;;;;;;;;;;;;19.21;100.00;101304.72;5091284;28;19920;-37
2022/08/17 12:25:32;;;;;;;;;;;;;;;19.22;100.00;101300.72;5091617;28;19966;-35
2022/08/17 12:28:00;;;;;;;;;;;;;;;19.26;100.00;101284.72;5092004;28;19924;-34
2022/08/17 12:30:34;;;;;;;;;;;;;;;19.29;100.00;101280.34;5092538;28;19927;-31
2022/08/17 12:33:01;;;;;;;;;;;;;;;19.28;100.00;101278.69;5095896;28;19930;-31
2022/08/17 12:35:33;;;;;;;;;;;;;;;19.26;100.00;101289.53;5096001;28;19920;-36
2022/08/17 12:38:02;;;;;;;;;;;;;;;19.27;100.00;101294.03;5094267;28;19927;-36
2022/08/17 12:40:31;;;;;;;;;;;;;;;19.30;100.00;101304.66;5095661;28;19919;-31
2022/08/17 12:42:59;;;;;;;;;;;;;;;19.33;100.00;101306.78;5094420;28;19926;-34
2022/08/17 12:45:29;;;;;;;;;;;;;;;19.37;100.00;101306.94;5095589;28;20368;-38
2022/08/17 12:48:01;;;;;;;;;;;;;;;19.37;100.00;101306.94;5095202;28;19919;-36
2022/08/17 12:50:29;;;;;;;;;;;;;;;19.37;100.00;101310.59;5094929;28;19920;-30
2022/08/17 12:52:58;;;;;;;;;;;;;;;19.38;100.00;101312.25;5094802;28;19930;-38
2022/08/17 12:55:29;;;;;;;;;;;;;;;19.38;100.00;101309.41;5095723;28;19920;-32
2022/08/17 12:58:00;;;;;;;;;;;;;;;19.41;100.00;101310.69;5094967;28;19924;-33
2022/08/17 13:00:30;;;;;;;;;;;;;;;19.42;100.00;101313.19;5095265;28;20014;-34
2022/08/17 13:02:59;;;;;;;;;;;;;;;19.44;100.00;101319.31;5094791;28;19947;-37
2022/08/17 13:05:27;;;;;;;;;;;;;;;19.45;100.00;101312.50;5094453;28;20329;-32
2022/08/17 13:07:55;;;;;;;;;;;;;;;19.47;100.00;101318.63;5094523;28;20387;-33
2022/08/17 13:10:26;;;;;;;;;;;;;;;19.51;100.00;101327.28;5095288;28;19931;-33
2022/08/17 13:13:03;;;;;;;;;;;;;;;19.51;100.00;101332.94;5094331;28;20246;-32
2022/08/17 13:15:35;;;;;;;;;;;;;;;19.52;100.00;101332.59;5094565;28;20294;-38
2022/08/17 13:18:05;;;;;;;;;;;;;;;19.53;100.00;101334.25;5094235;28;19924;-33
2022/08/17 13:20:34;;;;;;;;;;;;;;;19.52;100.00;101338.28;5095008;28;19920;-32
2022/08/17 13:23:04;;;;;;;;;;;;;;;19.53;100.00;101334.25;5094229;28;19924;-35
2022/08/17 13:25:40;;;;;;;;;;;;;;;19.56;100.00;101335.56;5094152;28;19970;-32